createdAt,value
2022-08-09T00:08:51.918Z,0.8
2022-08-09T00:22:51.239Z,0.6
2022-08-09T00:36:52.018Z,0.9
2022-08-09T00:50:52.056Z,0
2022-08-09T01:04:51.655Z,0
2022-08-09T01:19:01.852Z,0
2022-08-09T01:32:51.689Z,0.2
2022-08-09T01:46:53.056Z,0
2022-08-09T02:00:51.723Z,0
2022-08-09T02:14:52.001Z,0.2
2022-08-09T02:28:51.724Z,0
2022-08-09T02:42:51.740Z,0
2022-08-09T02:56:53.963Z,0
2022-08-09T03:10:51.737Z,0
2022-08-09T03:24:52.841Z,0.8
2022-08-09T03:38:51.721Z,0
2022-08-09T03:52:51.757Z,0
2022-08-09T04:07:53.091Z,0
2022-08-09T04:22:51.759Z,0
2022-08-09T04:38:51.738Z,0
2022-08-09T04:53:54.247Z,0
2022-08-09T05:08:51.729Z,0
2022-08-09T05:23:55.803Z,0.8
2022-08-09T05:38:51.731Z,0
2022-08-09T05:53:57.090Z,0
2022-08-09T06:08:52.470Z,0
2022-08-09T06:23:55.980Z,0
2022-08-09T06:38:51.771Z,0
2022-08-09T06:53:51.768Z,0.2
2022-08-09T07:08:51.755Z,0
2022-08-09T07:23:56.776Z,1.0
2022-08-09T07:38:58.335Z,0.9
2022-08-09T07:54:06.092Z,0.9
2022-08-09T08:09:02.885Z,0.8
2022-08-09T08:23:55.795Z,0.4
2022-08-09T08:38:51.793Z,1.0
2022-08-09T08:54:03.989Z,1.1
2022-08-09T09:08:52.294Z,0.8
2022-08-09T09:23:57.402Z,1.2
2022-08-09T09:38:51.849Z,1.2
2022-08-09T09:54:55.090Z,1.2
2022-08-09T10:09:54.630Z,1.2
2022-08-09T10:26:04.991Z,1.2
2022-08-09T10:41:51.985Z,1.7
2022-08-09T11:00:01.733Z,1.0
2022-08-09T11:16:05.045Z,0.9
2022-08-09T11:32:00.233Z,1.3
2022-08-09T11:47:00.261Z,0.5
2022-08-09T12:02:01.225Z,1.3
2022-08-09T12:18:00.422Z,1.6
2022-08-09T12:34:01.242Z,1.1
2022-08-09T12:49:00.599Z,1.4
2022-08-09T13:04:01.825Z,0.9
2022-08-09T13:19:00.819Z,1.2
2022-08-09T13:35:00.823Z,1.4
2022-08-09T13:50:01.604Z,1.2
2022-08-09T14:05:00.938Z,0.4
2022-08-09T14:20:00.909Z,1.3
2022-08-09T14:35:00.922Z,0.8
2022-08-09T14:50:01.289Z,1.1
2022-08-09T15:05:01.030Z,1.1
2022-08-09T15:20:02.545Z,0.6
2022-08-09T15:35:01.312Z,0.8
2022-08-09T15:50:03.686Z,0.8
2022-08-09T16:05:02.600Z,0.4
2022-08-09T16:20:03.758Z,0
2022-08-09T16:35:02.289Z,0.6
2022-08-09T16:50:30.916Z,0
2022-08-09T17:05:01.320Z,0
2022-08-09T17:20:28.053Z,0
2022-08-09T17:35:11.123Z,0
2022-08-09T17:50:11.129Z,0
2022-08-09T18:05:01.447Z,0
2022-08-09T18:20:53.443Z,0
2022-08-09T18:35:01.536Z,0
2022-08-09T18:50:03.063Z,0.2
2022-08-09T19:05:03.453Z,0
2022-08-09T19:20:02.090Z,0.8
2022-08-09T19:34:01.858Z,0
2022-08-09T19:48:01.990Z,0.8
2022-08-09T20:02:03.649Z,0.8
2022-08-09T20:16:32.533Z,0.8
2022-08-09T20:30:02.596Z,1.0
2022-08-09T20:44:02.016Z,0
2022-08-09T20:58:05.794Z,0
2022-08-09T21:26:02.143Z,1.3
2022-08-09T21:40:02.218Z,0
2022-08-09T21:54:02.172Z,0.2
2022-08-09T22:08:02.270Z,0.2
2022-08-09T22:22:02.269Z,0
2022-08-09T22:36:03.636Z,0
2022-08-09T22:50:02.316Z,0
2022-08-09T23:04:04.918Z,0
2022-08-09T23:18:02.282Z,0
2022-08-09T23:32:02.293Z,0
2022-08-09T23:46:02.339Z,0.4
